sensor_id;sensor_type;location;lat;lon;timestamp;pressure;altitude;pressure_sealevel;temperature;humidity
31346;BME280;21711;49.708;18.568;2022-09-09T00:00:53;97082.41;;;15.98;100.00
31346;BME280;21711;49.708;18.568;2022-09-09T00:03:31;97084.28;;;15.97;100.00
31346;BME280;21711;49.708;18.568;2022-09-09T00:06:23;97081.91;;;15.96;100.00
31346;BME280;21711;49.708;18.568;2022-09-09T00:09:11;97087.75;;;15.98;100.00
31346;BME280;21711;49.708;18.568;2022-09-09T00:12:13;97086.59;;;15.90;100.00
31346;BME280;21711;49.708;18.568;2022-09-09T00:14:54;97091.94;;;15.90;100.00
31346;BME280;21711;49.708;18.568;2022-09-09T00:17:38;97089.09;;;15.86;100.00
31346;BME280;21711;49.708;18.568;2022-09-09T00:20:23;97091.13;;;15.89;100.00
31346;BME280;21711;49.708;18.568;2022-09-09T00:23:14;97089.44;;;15.94;100.00
31346;BME280;21711;49.708;18.568;2022-09-09T00:31:39;97098.03;;;15.90;100.00
31346;BME280;21711;49.708;18.568;2022-09-09T00:34:20;97093.69;;;15.95;100.00
31346;BME280;21711;49.708;18.568;2022-09-09T00:36:52;97100.88;;;15.94;100.00
31346;BME280;21711;49.708;18.568;2022-09-09T00:39:38;97105.16;;;16.04;100.00
31346;BME280;21711;49.708;18.568;2022-09-09T00:42:22;97108.47;;;16.10;100.00
31346;BME280;21711;49.708;18.568;2022-09-09T00:47:52;97109.25;;;16.19;100.00
31346;BME280;21711;49.708;18.568;2022-09-09T00:56:14;97117.09;;;16.33;100.00
31346;BME280;21711;49.708;18.568;2022-09-09T01:01:37;97119.78;;;16.42;100.00
31346;BME280;21711;49.708;18.568;2022-09-09T01:04:14;97118.34;;;16.36;100.00
31346;BME280;21711;49.708;18.568;2022-09-09T01:06:46;97118.66;;;16.43;100.00
31346;BME280;21711;49.708;18.568;2022-09-09T01:09:42;97113.16;;;16.48;100.00
31346;BME280;21711;49.708;18.568;2022-09-09T01:12:37;97120.53;;;16.51;100.00
31346;BME280;21711;49.708;18.568;2022-09-09T01:15:24;97112.06;;;16.49;100.00
31346;BME280;21711;49.708;18.568;2022-09-09T01:18:04;97121.94;;;16.49;100.00
31346;BME280;21711;49.708;18.568;2022-09-09T01:21:09;97122.75;;;16.40;100.00
31346;BME280;21711;49.708;18.568;2022-09-09T01:24:00;97116.00;;;16.52;100.00
31346;BME280;21711;49.708;18.568;2022-09-09T01:26:58;97123.84;;;16.48;100.00
31346;BME280;21711;49.708;18.568;2022-09-09T01:29:28;97129.34;;;16.52;100.00
31346;BME280;21711;49.708;18.568;2022-09-09T01:31:59;97133.75;;;16.56;100.00
31346;BME280;21711;49.708;18.568;2022-09-09T01:34:36;97135.44;;;16.61;100.00
31346;BME280;21711;49.708;18.568;2022-09-09T01:37:11;97136.88;;;16.50;100.00
31346;BME280;21711;49.708;18.568;2022-09-09T01:39:43;97136.41;;;16.56;100.00
31346;BME280;21711;49.708;18.568;2022-09-09T01:42:16;97137.81;;;16.54;100.00
31346;BME280;21711;49.708;18.568;2022-09-09T01:44:45;97139.22;;;16.42;100.00
31346;BME280;21711;49.708;18.568;2022-09-09T01:47:12;97137.19;;;16.48;100.00
31346;BME280;21711;49.708;18.568;2022-09-09T01:49:53;97130.91;;;16.53;100.00
31346;BME280;21711;49.708;18.568;2022-09-09T01:52:25;97146.28;;;16.56;100.00
31346;BME280;21711;49.708;18.568;2022-09-09T01:54:52;97128.06;;;16.58;100.00
31346;BME280;21711;49.708;18.568;2022-09-09T01:57:55;97136.88;;;16.50;100.00
31346;BME280;21711;49.708;18.568;2022-09-09T02:00:28;97138.91;;;16.44;100.00
31346;BME280;21711;49.708;18.568;2022-09-09T02:08:55;97148.94;;;16.38;100.00
31346;BME280;21711;49.708;18.568;2022-09-09T02:11:26;97146.13;;;16.35;100.00
31346;BME280;21711;49.708;18.568;2022-09-09T02:14:14;97146.13;;;16.26;100.00
31346;BME280;21711;49.708;18.568;2022-09-09T02:16:55;97149.75;;;16.30;100.00
31346;BME280;21711;49.708;18.568;2022-09-09T02:19:34;97150.53;;;16.22;100.00
31346;BME280;21711;49.708;18.568;2022-09-09T02:22:18;97155.22;;;16.16;100.00
31346;BME280;21711;49.708;18.568;2022-09-09T02:24:49;97157.41;;;16.14;100.00
31346;BME280;21711;49.708;18.568;2022-09-09T02:27:23;97157.69;;;16.03;100.00
31346;BME280;21711;49.708;18.568;2022-09-09T02:29:53;97152.53;;;16.07;100.00
31346;BME280;21711;49.708;18.568;2022-09-09T02:32:45;97162.56;;;16.01;100.00
31346;BME280;21711;49.708;18.568;2022-09-09T02:35:19;97164.97;;;15.80;100.00
31346;BME280;21711;49.708;18.568;2022-09-09T02:37:49;97170.91;;;15.68;100.00
31346;BME280;21711;49.708;18.568;2022-09-09T02:40:17;97171.03;;;15.63;100.00
31346;BME280;21711;49.708;18.568;2022-09-09T02:42:49;97171.91;;;15.49;100.00
31346;BME280;21711;49.708;18.568;2022-09-09T02:45:27;97166.44;;;15.46;100.00
31346;BME280;21711;49.708;18.568;2022-09-09T02:48:30;97170.53;;;15.52;100.00
31346;BME280;21711;49.708;18.568;2022-09-09T02:51:18;97172.91;;;15.62;100.00
31346;BME280;21711;49.708;18.568;2022-09-09T02:56:41;97176.34;;;15.54;100.00
31346;BME280;21711;49.708;18.568;2022-09-09T02:59:12;97181.16;;;15.43;100.00
31346;BME280;21711;49.708;18.568;2022-09-09T03:01:40;97177.66;;;15.34;100.00
31346;BME280;21711;49.708;18.568;2022-09-09T03:04:10;97187.75;;;15.46;100.00
31346;BME280;21711;49.708;18.568;2022-09-09T03:06:38;97183.69;;;15.48;100.00
31346;BME280;21711;49.708;18.568;2022-09-09T03:09:15;97183.19;;;15.46;100.00
31346;BME280;21711;49.708;18.568;2022-09-09T03:11:42;97187.94;;;15.58;100.00
31346;BME280;21711;49.708;18.568;2022-09-09T03:14:11;97193.78;;;15.69;100.00
31346;BME280;21711;49.708;18.568;2022-09-09T03:16:39;97190.16;;;15.65;100.00
31346;BME280;21711;49.708;18.568;2022-09-09T03:19:07;97192.66;;;15.61;100.00
31346;BME280;21711;49.708;18.568;2022-09-09T03:21:34;97196.13;;;15.62;100.00
31346;BME280;21711;49.708;18.568;2022-09-09T03:24:02;97190.97;;;15.65;100.00
31346;BME280;21711;49.708;18.568;2022-09-09T03:26:31;97200.22;;;15.68;100.00
31346;BME280;21711;49.708;18.568;2022-09-09T03:28:59;97196.47;;;15.69;100.00
31346;BME280;21711;49.708;18.568;2022-09-09T03:31:29;97204.28;;;15.65;100.00
31346;BME280;21711;49.708;18.568;2022-09-09T03:33:58;97203.50;;;15.65;100.00
31346;BME280;21711;49.708;18.568;2022-09-09T03:36:27;97195.19;;;15.67;100.00
31346;BME280;21711;49.708;18.568;2022-09-09T03:38:55;97202.53;;;15.61;100.00
31346;BME280;21711;49.708;18.568;2022-09-09T03:41:25;97201.53;;;15.48;100.00
31346;BME280;21711;49.708;18.568;2022-09-09T03:43:53;97198.03;;;15.38;100.00
31346;BME280;21711;49.708;18.568;2022-09-09T03:46:25;97201.09;;;15.23;100.00
31346;BME280;21711;49.708;18.568;2022-09-09T03:48:53;97199.47;;;15.13;100.00
31346;BME280;21711;49.708;18.568;2022-09-09T03:51:20;97206.59;;;15.04;100.00
31346;BME280;21711;49.708;18.568;2022-09-09T03:53:49;97203.53;;;14.88;100.00
31346;BME280;21711;49.708;18.568;2022-09-09T03:56:17;97204.25;;;14.79;100.00
31346;BME280;21711;49.708;18.568;2022-09-09T03:58:45;97210.38;;;14.66;100.00
31346;BME280;21711;49.708;18.568;2022-09-09T04:01:14;97205.47;;;14.59;100.00
31346;BME280;21711;49.708;18.568;2022-09-09T04:03:42;97206.56;;;14.58;100.00
31346;BME280;21711;49.708;18.568;2022-09-09T04:06:11;97204.78;;;14.53;100.00
31346;BME280;21711;49.708;18.568;2022-09-09T04:08:42;97213.06;;;14.52;100.00
31346;BME280;21711;49.708;18.568;2022-09-09T04:11:09;97203.38;;;14.56;100.00
31346;BME280;21711;49.708;18.568;2022-09-09T04:13:38;97209.22;;;14.58;100.00
31346;BME280;21711;49.708;18.568;2022-09-09T04:16:11;97210.97;;;14.63;100.00
31346;BME280;21711;49.708;18.568;2022-09-09T04:18:42;97208.81;;;14.65;100.00
31346;BME280;21711;49.708;18.568;2022-09-09T04:21:10;97213.50;;;14.68;100.00
31346;BME280;21711;49.708;18.568;2022-09-09T04:23:39;97206.56;;;14.58;100.00
31346;BME280;21711;49.708;18.568;2022-09-09T04:26:08;97209.09;;;14.63;100.00
31346;BME280;21711;49.708;18.568;2022-09-09T04:28:37;97216.91;;;14.59;100.00
31346;BME280;21711;49.708;18.568;2022-09-09T04:31:20;97211.47;;;14.65;100.00
31346;BME280;21711;49.708;18.568;2022-09-09T04:33:53;97203.03;;;14.85;100.00
31346;BME280;21711;49.708;18.568;2022-09-09T04:36:21;97210.59;;;14.92;100.00
31346;BME280;21711;49.708;18.568;2022-09-09T04:38:51;97211.28;;;14.98;100.00
31346;BME280;21711;49.708;18.568;2022-09-09T04:41:19;97215.75;;;15.11;100.00
31346;BME280;21711;49.708;18.568;2022-09-09T04:43:50;97221.94;;;15.21;100.00
31346;BME280;21711;49.708;18.568;2022-09-09T04:46:17;97222.41;;;15.23;100.00
31346;BME280;21711;49.708;18.568;2022-09-09T04:48:49;97224.69;;;15.38;100.00
31346;BME280;21711;49.708;18.568;2022-09-09T04:51:17;97225.75;;;15.60;100.00
31346;BME280;21711;49.708;18.568;2022-09-09T04:53:47;97230.66;;;15.67;100.00
31346;BME280;21711;49.708;18.568;2022-09-09T04:56:17;97224.72;;;15.79;100.00
31346;BME280;21711;49.708;18.568;2022-09-09T04:59:05;97225.25;;;15.90;100.00
31346;BME280;21711;49.708;18.568;2022-09-09T05:01:41;97225.47;;;16.02;100.00
31346;BME280;21711;49.708;18.568;2022-09-09T05:04:10;97235.03;;;16.03;100.00
31346;BME280;21711;49.708;18.568;2022-09-09T05:06:38;97233.75;;;16.01;100.00
31346;BME280;21711;49.708;18.568;2022-09-09T05:09:06;97236.63;;;16.13;100.00
31346;BME280;21711;49.708;18.568;2022-09-09T05:11:34;97244.81;;;16.17;100.00
31346;BME280;21711;49.708;18.568;2022-09-09T05:14:20;97241.38;;;16.16;100.00
31346;BME280;21711;49.708;18.568;2022-09-09T05:16:48;97244.19;;;16.20;100.00
31346;BME280;21711;49.708;18.568;2022-09-09T05:19:17;97246.06;;;16.20;100.00
31346;BME280;21711;49.708;18.568;2022-09-09T05:21:49;97244.66;;;16.22;100.00
31346;BME280;21711;49.708;18.568;2022-09-09T05:24:21;97245.00;;;16.29;100.00
31346;BME280;21711;49.708;18.568;2022-09-09T05:26:53;97243.13;;;16.30;100.00
31346;BME280;21711;49.708;18.568;2022-09-09T05:29:20;97240.94;;;16.32;100.00
31346;BME280;21711;49.708;18.568;2022-09-09T05:31:48;97243.63;;;16.94;100.00
31346;BME280;21711;49.708;18.568;2022-09-09T05:34:19;97241.38;;;17.58;100.00
31346;BME280;21711;49.708;18.568;2022-09-09T05:36:48;97247.88;;;18.35;100.00
31346;BME280;21711;49.708;18.568;2022-09-09T05:39:15;97248.44;;;19.26;100.00
31346;BME280;21711;49.708;18.568;2022-09-09T05:41:43;97254.16;;;19.83;100.00
31346;BME280;21711;49.708;18.568;2022-09-09T05:44:10;97256.00;;;20.29;100.00
31346;BME280;21711;49.708;18.568;2022-09-09T05:46:38;97258.50;;;20.87;100.00
31346;BME280;21711;49.708;18.568;2022-09-09T05:49:06;97256.53;;;20.47;100.00
31346;BME280;21711;49.708;18.568;2022-09-09T05:51:35;97252.28;;;20.58;100.00
31346;BME280;21711;49.708;18.568;2022-09-09T05:54:08;97248.63;;;20.79;100.00
31346;BME280;21711;49.708;18.568;2022-09-09T05:56:40;97250.91;;;21.50;100.00
31346;BME280;21711;49.708;18.568;2022-09-09T05:59:08;97250.22;;;21.53;100.00
31346;BME280;21711;49.708;18.568;2022-09-09T06:01:37;97253.13;;;22.09;100.00
31346;BME280;21711;49.708;18.568;2022-09-09T06:04:10;97254.25;;;21.76;100.00
31346;BME280;21711;49.708;18.568;2022-09-09T06:06:39;97242.94;;;22.18;100.00
31346;BME280;21711;49.708;18.568;2022-09-09T06:09:16;97241.59;;;22.09;100.00
31346;BME280;21711;49.708;18.568;2022-09-09T06:11:43;97245.94;;;21.97;100.00
31346;BME280;21711;49.708;18.568;2022-09-09T06:14:12;97247.47;;;22.14;100.00
31346;BME280;21711;49.708;18.568;2022-09-09T06:16:40;97254.91;;;22.37;100.00
31346;BME280;21711;49.708;18.568;2022-09-09T06:19:27;97262.22;;;23.51;100.00
31346;BME280;21711;49.708;18.568;2022-09-09T06:21:56;97262.66;;;24.54;100.00
31346;BME280;21711;49.708;18.568;2022-09-09T06:24:24;97262.38;;;25.63;100.00
31346;BME280;21711;49.708;18.568;2022-09-09T06:26:52;97257.66;;;25.97;93.43
31346;BME280;21711;49.708;18.568;2022-09-09T06:29:22;97254.97;;;26.05;93.08
31346;BME280;21711;49.708;18.568;2022-09-09T06:31:51;97259.78;;;25.77;93.92
31346;BME280;21711;49.708;18.568;2022-09-09T06:34:23;97260.13;;;26.21;92.69
31346;BME280;21711;49.708;18.568;2022-09-09T06:36:54;97257.19;;;26.44;92.86
31346;BME280;21711;49.708;18.568;2022-09-09T06:39:22;97254.44;;;26.37;90.23
31346;BME280;21711;49.708;18.568;2022-09-09T06:41:50;97246.53;;;26.84;81.03
31346;BME280;21711;49.708;18.568;2022-09-09T06:44:38;97250.03;;;26.92;72.26
31346;BME280;21711;49.708;18.568;2022-09-09T06:47:11;97254.78;;;27.06;72.80
31346;BME280;21711;49.708;18.568;2022-09-09T06:49:40;97263.06;;;27.79;71.92
31346;BME280;21711;49.708;18.568;2022-09-09T06:52:10;97262.50;;;28.93;66.14
31346;BME280;21711;49.708;18.568;2022-09-09T06:54:38;97251.03;;;27.69;57.06
31346;BME280;21711;49.708;18.568;2022-09-09T06:57:05;97246.56;;;26.88;59.10
31346;BME280;21711;49.708;18.568;2022-09-09T06:59:55;97242.94;;;26.55;59.90
31346;BME280;21711;49.708;18.568;2022-09-09T07:02:23;97238.22;;;25.88;61.55
31346;BME280;21711;49.708;18.568;2022-09-09T07:04:52;97244.53;;;26.67;59.99
31346;BME280;21711;49.708;18.568;2022-09-09T07:07:20;97239.09;;;26.03;57.77
31346;BME280;21711;49.708;18.568;2022-09-09T07:09:47;97246.09;;;25.21;64.12
31346;BME280;21711;49.708;18.568;2022-09-09T07:12:15;97249.75;;;27.23;59.20
31346;BME280;21711;49.708;18.568;2022-09-09T07:14:51;97264.34;;;29.18;51.88
31346;BME280;21711;49.708;18.568;2022-09-09T07:17:18;97264.31;;;30.28;49.59
31346;BME280;21711;49.708;18.568;2022-09-09T07:19:45;97268.69;;;30.91;46.20
31346;BME280;21711;49.708;18.568;2022-09-09T07:22:15;97271.88;;;30.86;45.30
31346;BME280;21711;49.708;18.568;2022-09-09T07:24:43;97271.56;;;31.12;43.90
31346;BME280;21711;49.708;18.568;2022-09-09T07:27:13;97273.53;;;31.11;47.09
31346;BME280;21711;49.708;18.568;2022-09-09T07:29:41;97269.25;;;31.93;43.65
31346;BME280;21711;49.708;18.568;2022-09-09T07:32:09;97259.97;;;31.35;43.53
31346;BME280;21711;49.708;18.568;2022-09-09T07:34:37;97264.56;;;29.99;46.22
31346;BME280;21711;49.708;18.568;2022-09-09T07:37:05;97271.44;;;29.65;46.34
31346;BME280;21711;49.708;18.568;2022-09-09T07:39:33;97268.69;;;28.86;52.02
31346;BME280;21711;49.708;18.568;2022-09-09T07:42:01;97271.13;;;28.70;52.81
31346;BME280;21711;49.708;18.568;2022-09-09T07:44:29;97264.16;;;29.51;50.88
31346;BME280;21711;49.708;18.568;2022-09-09T07:47:03;97262.03;;;30.61;48.15
31346;BME280;21711;49.708;18.568;2022-09-09T07:49:38;97269.97;;;33.22;40.70
31346;BME280;21711;49.708;18.568;2022-09-09T07:52:07;97270.19;;;34.61;37.97
31346;BME280;21711;49.708;18.568;2022-09-09T07:54:37;97276.38;;;34.91;35.29
31346;BME280;21711;49.708;18.568;2022-09-09T07:57:06;97274.47;;;35.18;35.63
31346;BME280;21711;49.708;18.568;2022-09-09T07:59:35;97268.66;;;34.43;35.41
31346;BME280;21711;49.708;18.568;2022-09-09T08:02:03;97257.00;;;34.09;35.74
31346;BME280;21711;49.708;18.568;2022-09-09T08:04:33;97268.31;;;33.95;36.19
31346;BME280;21711;49.708;18.568;2022-09-09T08:07:02;97259.72;;;34.09;37.59
31346;BME280;21711;49.708;18.568;2022-09-09T08:09:36;97268.38;;;34.97;34.70
31346;BME280;21711;49.708;18.568;2022-09-09T08:12:12;97273.88;;;32.44;39.08
31346;BME280;21711;49.708;18.568;2022-09-09T08:14:40;97276.50;;;31.52;41.26
31346;BME280;21711;49.708;18.568;2022-09-09T08:17:07;97268.66;;;30.22;41.67
31346;BME280;21711;49.708;18.568;2022-09-09T08:19:35;97269.81;;;29.75;45.67
31346;BME280;21711;49.708;18.568;2022-09-09T08:22:07;97268.03;;;30.03;45.22
31346;BME280;21711;49.708;18.568;2022-09-09T08:24:38;97264.91;;;30.01;46.61
31346;BME280;21711;49.708;18.568;2022-09-09T08:27:07;97265.72;;;30.01;47.36
31346;BME280;21711;49.708;18.568;2022-09-09T08:29:34;97265.66;;;30.09;45.23
31346;BME280;21711;49.708;18.568;2022-09-09T08:32:02;97271.94;;;31.14;44.07
31346;BME280;21711;49.708;18.568;2022-09-09T08:34:30;97280.22;;;33.88;36.19
31346;BME280;21711;49.708;18.568;2022-09-09T08:37:02;97271.69;;;34.32;34.86
31346;BME280;21711;49.708;18.568;2022-09-09T08:39:35;97265.25;;;34.69;34.67
31346;BME280;21711;49.708;18.568;2022-09-09T08:42:36;97262.59;;;33.89;33.17
31346;BME280;21711;49.708;18.568;2022-09-09T08:45:42;97252.56;;;32.31;34.81
31346;BME280;21711;49.708;18.568;2022-09-09T08:49:06;97250.38;;;30.57;36.10
31346;BME280;21711;49.708;18.568;2022-09-09T08:51:31;97238.44;;;30.01;40.06
31346;BME280;21711;49.708;18.568;2022-09-09T08:54:02;97239.91;;;30.52;36.84
31346;BME280;21711;49.708;18.568;2022-09-09T08:56:32;97246.28;;;30.76;37.81
31346;BME280;21711;49.708;18.568;2022-09-09T08:59:02;97249.97;;;32.48;35.55
31346;BME280;21711;49.708;18.568;2022-09-09T09:02:09;97254.66;;;35.10;31.65
31346;BME280;21711;49.708;18.568;2022-09-09T09:08:16;97248.91;;;36.53;29.52
31346;BME280;21711;49.708;18.568;2022-09-09T09:10:50;97248.38;;;35.61;28.85
31346;BME280;21711;49.708;18.568;2022-09-09T09:16:27;97251.97;;;38.10;25.91
31346;BME280;21711;49.708;18.568;2022-09-09T09:19:00;97241.53;;;37.45;26.98
31346;BME280;21711;49.708;18.568;2022-09-09T09:24:20;97227.53;;;33.30;34.25
31346;BME280;21711;49.708;18.568;2022-09-09T09:26:50;97223.66;;;32.10;36.18
31346;BME280;21711;49.708;18.568;2022-09-09T09:29:20;97231.84;;;31.90;35.99
31346;BME280;21711;49.708;18.568;2022-09-09T09:31:53;97239.25;;;32.33;36.50
31346;BME280;21711;49.708;18.568;2022-09-09T09:34:24;97242.25;;;33.20;35.56
31346;BME280;21711;49.708;18.568;2022-09-09T09:36:56;97243.28;;;33.93;33.51
31346;BME280;21711;49.708;18.568;2022-09-09T09:39:33;97245.59;;;34.41;33.31
31346;BME280;21711;49.708;18.568;2022-09-09T09:42:25;97244.66;;;33.35;33.84
31346;BME280;21711;49.708;18.568;2022-09-09T09:44:56;97251.72;;;31.39;38.63
31346;BME280;21711;49.708;18.568;2022-09-09T09:47:23;97255.88;;;30.15;39.40
31346;BME280;21711;49.708;18.568;2022-09-09T09:50:19;97250.88;;;28.78;44.38
31346;BME280;21711;49.708;18.568;2022-09-09T09:53:04;97262.66;;;27.99;46.04
31346;BME280;21711;49.708;18.568;2022-09-09T09:55:52;97270.84;;;31.07;39.32
31346;BME280;21711;49.708;18.568;2022-09-09T09:58:22;97275.72;;;34.57;32.05
31346;BME280;21711;49.708;18.568;2022-09-09T10:00:52;97282.53;;;36.70;27.69
31346;BME280;21711;49.708;18.568;2022-09-09T10:03:33;97293.00;;;38.83;27.50
31346;BME280;21711;49.708;18.568;2022-09-09T10:06:07;97282.16;;;38.32;26.67
31346;BME280;21711;49.708;18.568;2022-09-09T10:08:45;97279.84;;;38.40;28.64
31346;BME280;21711;49.708;18.568;2022-09-09T10:12:00;97268.88;;;36.89;26.82
31346;BME280;21711;49.708;18.568;2022-09-09T10:17:33;97258.00;;;33.16;34.52
31346;BME280;21711;49.708;18.568;2022-09-09T10:26:33;97261.44;;;30.42;39.15
31346;BME280;21711;49.708;18.568;2022-09-09T10:42:54;97261.84;;;35.94;27.67
31346;BME280;21711;49.708;18.568;2022-09-09T10:48:38;97264.81;;;36.00;28.02
31346;BME280;21711;49.708;18.568;2022-09-09T10:57:41;97271.50;;;37.24;28.58
31346;BME280;21711;49.708;18.568;2022-09-09T11:00:45;97264.81;;;38.60;25.62
31346;BME280;21711;49.708;18.568;2022-09-09T11:03:27;97268.94;;;38.08;26.77
31346;BME280;21711;49.708;18.568;2022-09-09T11:06:06;97272.41;;;37.62;24.42
31346;BME280;21711;49.708;18.568;2022-09-09T11:08:39;97272.09;;;37.19;25.82
31346;BME280;21711;49.708;18.568;2022-09-09T11:11:47;97271.84;;;35.53;27.89
31346;BME280;21711;49.708;18.568;2022-09-09T11:14:40;97269.78;;;34.88;29.39
31346;BME280;21711;49.708;18.568;2022-09-09T11:17:22;97276.03;;;33.67;30.34
31346;BME280;21711;49.708;18.568;2022-09-09T11:19:51;97273.03;;;33.08;33.26
31346;BME280;21711;49.708;18.568;2022-09-09T11:22:36;97266.06;;;33.03;31.87
31346;BME280;21711;49.708;18.568;2022-09-09T11:25:26;97273.00;;;33.28;32.41
31346;BME280;21711;49.708;18.568;2022-09-09T11:33:48;97267.63;;;33.91;30.87
31346;BME280;21711;49.708;18.568;2022-09-09T11:39:38;97260.91;;;32.68;32.46
31346;BME280;21711;49.708;18.568;2022-09-09T11:42:20;97260.53;;;31.50;34.39
31346;BME280;21711;49.708;18.568;2022-09-09T11:44:48;97260.03;;;31.28;34.08
31346;BME280;21711;49.708;18.568;2022-09-09T11:47:28;97254.09;;;31.05;35.10
31346;BME280;21711;49.708;18.568;2022-09-09T11:52:50;97259.78;;;31.18;36.32
31346;BME280;21711;49.708;18.568;2022-09-09T11:58:05;97265.56;;;29.70;36.46
31346;BME280;21711;49.708;18.568;2022-09-09T12:00:47;97275.88;;;30.43;38.82
31346;BME280;21711;49.708;18.568;2022-09-09T12:06:32;97270.50;;;30.70;36.45
31346;BME280;21711;49.708;18.568;2022-09-09T12:14:43;97271.09;;;31.20;35.73
31346;BME280;21711;49.708;18.568;2022-09-09T12:17:24;97269.56;;;30.46;38.71
31346;BME280;21711;49.708;18.568;2022-09-09T12:20:17;97265.34;;;29.99;36.81
31346;BME280;21711;49.708;18.568;2022-09-09T12:32:11;97247.06;;;27.30;49.98
31346;BME280;21711;49.708;18.568;2022-09-09T12:34:48;97238.50;;;27.10;44.85
31346;BME280;21711;49.708;18.568;2022-09-09T12:39:57;97245.56;;;27.54;45.13
31346;BME280;21711;49.708;18.568;2022-09-09T12:42:26;97239.78;;;27.74;45.92
31346;BME280;21711;49.708;18.568;2022-09-09T12:45:00;97238.63;;;27.86;44.79
31346;BME280;21711;49.708;18.568;2022-09-09T12:47:43;97242.09;;;27.72;42.36
31346;BME280;21711;49.708;18.568;2022-09-09T12:52:59;97235.28;;;26.86;45.63
31346;BME280;21711;49.708;18.568;2022-09-09T12:55:36;97237.25;;;26.85;43.41
31346;BME280;21711;49.708;18.568;2022-09-09T12:58:06;97231.31;;;26.58;49.56
31346;BME280;21711;49.708;18.568;2022-09-09T13:00:34;97228.06;;;26.30;46.91
31346;BME280;21711;49.708;18.568;2022-09-09T13:03:17;97237.31;;;26.25;47.49
31346;BME280;21711;49.708;18.568;2022-09-09T13:05:44;97242.16;;;25.98;48.98
31346;BME280;21711;49.708;18.568;2022-09-09T13:08:15;97236.81;;;26.09;49.49
31346;BME280;21711;49.708;18.568;2022-09-09T13:10:54;97230.88;;;25.92;44.23
31346;BME280;21711;49.708;18.568;2022-09-09T13:13:40;97229.94;;;26.22;46.67
31346;BME280;21711;49.708;18.568;2022-09-09T13:16:31;97237.38;;;26.36;47.48
31346;BME280;21711;49.708;18.568;2022-09-09T13:19:14;97226.16;;;26.34;47.70
31346;BME280;21711;49.708;18.568;2022-09-09T13:21:43;97226.53;;;26.29;47.10
31346;BME280;21711;49.708;18.568;2022-09-09T13:24:32;97232.69;;;26.26;48.42
31346;BME280;21711;49.708;18.568;2022-09-09T13:27:21;97226.34;;;26.07;46.08
31346;BME280;21711;49.708;18.568;2022-09-09T13:29:53;97221.56;;;25.86;48.94
31346;BME280;21711;49.708;18.568;2022-09-09T13:32:26;97216.06;;;25.75;51.77
31346;BME280;21711;49.708;18.568;2022-09-09T13:35:00;97211.81;;;25.78;47.58
31346;BME280;21711;49.708;18.568;2022-09-09T13:37:39;97204.13;;;25.80;52.33
31346;BME280;21711;49.708;18.568;2022-09-09T13:40:19;97194.81;;;25.35;54.91
31346;BME280;21711;49.708;18.568;2022-09-09T13:42:52;97204.13;;;25.80;52.47
31346;BME280;21711;49.708;18.568;2022-09-09T13:45:24;97197.34;;;26.08;46.32
31346;BME280;21711;49.708;18.568;2022-09-09T13:47:55;97199.25;;;26.04;45.21
31346;BME280;21711;49.708;18.568;2022-09-09T13:50:26;97187.81;;;25.72;47.01
31346;BME280;21711;49.708;18.568;2022-09-09T13:52:59;97188.13;;;25.60;45.15
31346;BME280;21711;49.708;18.568;2022-09-09T13:55:36;97179.03;;;25.41;50.29
31346;BME280;21711;49.708;18.568;2022-09-09T13:58:04;97189.47;;;25.01;48.73
31346;BME280;21711;49.708;18.568;2022-09-09T14:00:35;97188.44;;;25.13;53.73
31346;BME280;21711;49.708;18.568;2022-09-09T14:03:02;97184.25;;;25.19;52.64
31346;BME280;21711;49.708;18.568;2022-09-09T14:05:32;97179.16;;;25.14;52.76
31346;BME280;21711;49.708;18.568;2022-09-09T14:08:00;97174.50;;;25.11;53.05
31346;BME280;21711;49.708;18.568;2022-09-09T14:10:28;97170.25;;;25.14;51.72
31346;BME280;21711;49.708;18.568;2022-09-09T14:12:55;97167.19;;;25.15;53.83
31346;BME280;21711;49.708;18.568;2022-09-09T14:15:23;97153.63;;;24.74;49.06
31346;BME280;21711;49.708;18.568;2022-09-09T14:17:50;97153.69;;;24.81;51.08
31346;BME280;21711;49.708;18.568;2022-09-09T14:20:19;97158.84;;;24.59;53.00
31346;BME280;21711;49.708;18.568;2022-09-09T14:22:47;97157.75;;;24.64;51.17
31346;BME280;21711;49.708;18.568;2022-09-09T14:25:14;97158.28;;;24.77;52.16
31346;BME280;21711;49.708;18.568;2022-09-09T14:27:42;97156.38;;;24.77;52.85
31346;BME280;21711;49.708;18.568;2022-09-09T14:30:10;97152.72;;;24.62;53.83
31346;BME280;21711;49.708;18.568;2022-09-09T14:32:37;97161.84;;;24.50;51.54
31346;BME280;21711;49.708;18.568;2022-09-09T14:35:05;97159.88;;;24.47;50.40
31346;BME280;21711;49.708;18.568;2022-09-09T14:37:32;97161.97;;;24.27;56.38
31346;BME280;21711;49.708;18.568;2022-09-09T14:39:59;97167.28;;;24.23;58.38
31346;BME280;21711;49.708;18.568;2022-09-09T14:42:27;97161.34;;;24.41;54.80
31346;BME280;21711;49.708;18.568;2022-09-09T14:44:56;97160.53;;;24.37;54.76
31346;BME280;21711;49.708;18.568;2022-09-09T14:47:23;97168.31;;;24.42;57.02
31346;BME280;21711;49.708;18.568;2022-09-09T14:49:51;97169.31;;;24.30;57.74
31346;BME280;21711;49.708;18.568;2022-09-09T14:52:18;97167.75;;;24.29;57.82
31346;BME280;21711;49.708;18.568;2022-09-09T14:54:46;97171.63;;;24.04;61.27
31346;BME280;21711;49.708;18.568;2022-09-09T14:57:13;97170.50;;;23.78;68.65
31346;BME280;21711;49.708;18.568;2022-09-09T14:59:40;97177.00;;;23.74;68.02
31346;BME280;21711;49.708;18.568;2022-09-09T15:02:10;97179.75;;;23.54;67.51
31346;BME280;21711;49.708;18.568;2022-09-09T15:04:40;97179.81;;;23.34;71.41
31346;BME280;21711;49.708;18.568;2022-09-09T15:07:07;97178.19;;;23.30;71.30